KOZR

Cairns AAF (Fort Rucker) Airport

Fort Rucker/Ozark, Alabama, USA
METAR KOZR 191056Z AUTO 02003KT 10SM BKN180 09/06 A3005 RMK AO2 SLP178 T00850056
Observed Flight Rules
Dec-19 @ 10:56 UTC (44 minutes ago) Visual Flight Rules
Wind Visibility Clouds
20° at 3 knots 10 miles
  • Broken at 18,000' AGL
Temperatures Readings
Current 9°C / 48°F
Dewpoint 6°C / 43°F
Humidity 82%
Altimeter 30.05" Hg
Pressure 1017.8 hPa
Elevation 93
METAR KOZR 191056Z AUTO 02003KT 10SM BKN180 09/06 A3005 RMK AO2 SLP178 T00850056
Observed Flight Rules
Dec-19 @ 10:56 UTC
(44 minutes ago)
VFR
Wind Visibility
20° at 3 knots 10 miles
Clouds
  • Broken at 18,000' AGL
Temperature Dewpoint
9°C / 48°F 6°C / 43°F
Humidity Altimeter Pressure
82% 30.05" Hg 1017.8 hPa